< < Back
Terminal Aerodrome Forecast


Current Version              Previous Versions:   1  2  3  4  5  6  7  8  9  

Terminal Aerodrome Forecast

714
FTUS42 KCHS 230100 AAB
TAFSAV
TAF AMD
KSAV 230156Z 2302/2324 VRB04KT P6SM -SHRA SCT060 BKN090
     FM230400 VRB04KT P6SM MIFG SCT050 BKN100
     FM230800 30005KT 4SM BR SCT004 SCT040
     FM231300 34008KT P6SM SCT040
     FM232100 12008KT P6SM SCT045=



Latest METAR

801
SAUS80 KWBC 231100 RRB
MTRSAV
METAR KSAV 231053Z 25006KT 3SM BR OVC003 17/16 A2986 RMK AO2 SLP109
T01720156


USA.gov is the U.S. government's official web portal to all federal, state and local government web resources and services.